Time;durP1;ratioP1;P1;durP2;ratioP2;P2;SDS_P1;SDS_P2;PMS_P1;PMS_P2;Temp;Humidity;BMP_temperature;BMP_pressure;BME280_temperature;BME280_humidity;BME280_pressure;Samples;Min_cycle;Max_cycle;Signal;HPM_P1;HPM_P2
2023/09/23 00:00:55;;;;;;;0.20;0.20;;;;;;;14.41;100.00;99232.56;5147691;27;20027;-64
2023/09/23 00:03:23;;;;;;;0.40;0.40;;;;;;;14.47;100.00;99240.13;5147924;27;20086;-64
2023/09/23 00:05:48;;;;;;;1.15;1.15;;;;;;;14.54;100.00;99246.78;5129245;27;20034;-64
2023/09/23 00:08:14;;;;;;;0.20;0.20;;;;;;;14.55;100.00;99253.72;5147800;27;20023;-65
2023/09/23 00:10:39;;;;;;;2.30;0.85;;;;;;;14.54;100.00;99243.31;5147627;27;20023;-65
2023/09/23 00:13:05;;;;;;;0.20;0.20;;;;;;;14.61;100.00;99261.28;5147708;27;20450;-65
2023/09/23 00:15:31;;;;;;;0.20;0.20;;;;;;;14.60;100.00;99272.63;5147573;27;20110;-65
2023/09/23 00:17:57;;;;;;;0.20;0.20;;;;;;;14.62;100.00;99276.03;5147353;27;20046;-65
2023/09/23 00:20:23;;;;;;;0.20;0.20;;;;;;;14.57;100.00;99269.31;5147798;27;20019;-65
2023/09/23 00:22:50;;;;;;;0.30;0.30;;;;;;;14.56;100.00;99276.28;5147270;27;20019;-64
2023/09/23 00:25:19;;;;;;;0.20;0.20;;;;;;;14.53;100.00;99283.41;5147088;27;20051;-65
2023/09/23 00:27:48;;;;;;;0.20;0.20;;;;;;;14.54;100.00;99279.84;5147259;27;20030;-64
2023/09/23 00:30:14;;;;;;;0.20;0.20;;;;;;;14.51;100.00;99286.06;5147532;27;20027;-64
2023/09/23 00:32:41;;;;;;;0.20;0.20;;;;;;;14.50;100.00;99279.16;5147753;27;20027;-65
2023/09/23 00:35:10;;;;;;;0.20;0.20;;;;;;;14.47;100.00;99279.31;5147159;27;20015;-65
2023/09/23 00:37:36;;;;;;;1.10;1.10;;;;;;;14.52;100.00;99282.53;5128634;27;20015;-65
2023/09/23 00:40:03;;;;;;;0.47;0.47;;;;;;;14.48;100.00;99279.22;5147243;27;20030;-64
2023/09/23 00:42:28;;;;;;;0.20;0.20;;;;;;;14.42;100.00;99283.84;5147038;27;20037;-65
2023/09/23 00:44:54;;;;;;;0.20;0.20;;;;;;;14.42;100.00;99286.47;5146986;27;20023;-64
2023/09/23 00:47:19;;;;;;;0.40;0.40;;;;;;;14.37;100.00;99295.38;5146996;27;20098;-64
2023/09/23 00:49:46;;;;;;;0.20;0.20;;;;;;;14.38;100.00;99297.03;5145734;27;20047;-64
2023/09/23 00:52:14;;;;;;;0.20;0.20;;;;;;;14.36;100.00;99287.59;5146977;27;20027;-64
2023/09/23 00:54:40;;;;;;;0.20;0.20;;;;;;;14.37;100.00;99282.31;5146730;27;20019;-64
2023/09/23 00:57:07;;;;;;;0.20;0.20;;;;;;;14.38;100.00;99289.22;5127911;27;20258;-64
2023/09/23 00:59:36;;;;;;;0.20;0.20;;;;;;;14.37;100.00;99284.06;5146825;27;20026;-64
2023/09/23 01:02:05;;;;;;;0.20;0.20;;;;;;;14.42;100.00;99286.47;5146857;27;20034;-64
2023/09/23 01:04:31;;;;;;;0.30;0.30;;;;;;;14.37;100.00;99282.31;5146590;27;20023;-65
2023/09/23 01:06:59;;;;;;;0.20;0.20;;;;;;;14.39;100.00;99284.84;5146644;27;20036;-64
2023/09/23 01:09:25;;;;;;;0.20;0.20;;;;;;;14.44;100.00;99284.66;5146488;27;20052;-64
2023/09/23 01:11:51;;;;;;;0.20;0.20;;;;;;;14.44;100.00;99288.09;5146581;27;20022;-64
2023/09/23 01:14:21;;;;;;;0.30;0.30;;;;;;;14.40;100.00;99277.84;5146661;27;20027;-64
2023/09/23 01:16:51;;;;;;;0.20;0.20;;;;;;;14.42;100.00;99276.03;5146605;27;20024;-65
2023/09/23 01:19:25;;;;;;;0.20;0.20;;;;;;;14.46;100.00;99281.06;5146576;27;20474;-64
2023/09/23 01:21:50;;;;;;;0.20;0.20;;;;;;;14.44;100.00;99282.03;5127824;27;20034;-64
2023/09/23 01:24:17;;;;;;;3.60;2.92;;;;;;;14.50;100.00;99290.44;5146321;27;20031;-65
2023/09/23 01:26:51;;;;;;;0.20;0.20;;;;;;;14.53;100.00;99294.69;5146535;27;20122;-64
2023/09/23 01:29:21;;;;;;;1.02;0.60;;;;;;;14.53;100.00;99294.69;5128532;27;20012;-64
2023/09/23 01:32:04;;;;;;;1.88;0.82;;;;;;;14.56;100.00;99294.56;5146313;27;20030;-64
2023/09/23 01:34:29;;;;;;;;;;;;;;;14.58;100.00;99297.97;5128271;27;20027;-64
2023/09/23 01:36:54;;;;;;;4.75;1.40;;;;;;;14.56;100.00;99293.72;5146078;27;19945;-64
2023/09/23 01:39:20;;;;;;;0.98;0.88;;;;;;;14.58;100.00;99295.38;5146167;27;20461;-64
2023/09/23 01:41:45;;;;;;;0.73;0.60;;;;;;;14.56;100.00;99296.31;5146359;27;20023;-64
2023/09/23 01:44:10;;;;;;;2.08;1.25;;;;;;;14.58;100.00;99307.56;5146148;27;20379;-64
2023/09/23 01:46:36;;;;;;;1.20;0.95;;;;;;;14.61;100.00;99302.19;5146067;28;20048;-64
2023/09/23 01:49:01;;;;;;;1.05;0.80;;;;;;;14.61;100.00;99308.28;5145789;28;20076;-64
2023/09/23 01:51:26;;;;;;;1.75;0.95;;;;;;;14.54;100.00;99312.06;5146061;28;20086;-64
2023/09/23 01:53:53;;;;;;;0.57;0.55;;;;;;;14.49;100.00;99314.00;5146039;28;20023;-64
2023/09/23 01:56:19;;;;;;;1.58;1.27;;;;;;;14.53;100.00;99315.59;5146120;28;20015;-64
2023/09/23 01:58:44;;;;;;;1.80;0.95;;;;;;;14.47;100.00;99319.28;5146006;28;20041;-65
2023/09/23 02:01:10;;;;;;;1.35;1.10;;;;;;;14.50;100.00;99318.34;5146882;27;20047;-64
2023/09/23 02:03:35;;;;;;;0.70;0.70;;;;;;;14.51;100.00;99322.63;5150056;27;20019;-64
2023/09/23 02:06:01;;;;;;;2.40;0.60;;;;;;;14.50;100.00;99326.16;5150057;27;20467;-65
2023/09/23 02:08:26;;;;;;;1.30;0.82;;;;;;;14.49;100.00;99324.44;5150283;27;20038;-65
2023/09/23 02:10:52;;;;;;;1.73;1.02;;;;;;;14.44;100.00;99326.44;5150105;27;20019;-64
2023/09/23 02:13:17;;;;;;;1.30;0.77;;;;;;;14.38;100.00;99333.59;5150591;27;20003;-64
2023/09/23 02:15:45;;;;;;;2.80;1.00;;;;;;;14.38;100.00;99332.75;5149682;27;20026;-64
2023/09/23 02:18:10;;;;;;;1.80;1.05;;;;;;;14.43;100.00;99335.16;5149703;27;20053;-64
2023/09/23 02:20:36;;;;;;;1.50;0.75;;;;;;;14.42;100.00;99341.31;5150095;27;20027;-64
2023/09/23 02:23:02;;;;;;;1.73;0.93;;;;;;;14.44;100.00;99345.53;5149825;27;20019;-64
2023/09/23 02:25:28;;;;;;;1.23;1.10;;;;;;;14.42;100.00;99342.16;5149540;27;20055;-63
2023/09/23 02:27:55;;;;;;;1.13;0.77;;;;;;;14.41;100.00;99343.06;5149792;27;20027;-63
2023/09/23 02:30:21;;;;;;;2.83;1.17;;;;;;;14.38;100.00;99338.81;5149840;27;20027;-64
2023/09/23 02:32:47;;;;;;;1.27;1.00;;;;;;;14.31;100.00;99345.22;5149820;27;20372;-64
2023/09/23 02:35:15;;;;;;;2.10;1.15;;;;;;;14.27;100.00;99343.63;5130977;27;20205;-64
2023/09/23 02:37:45;;;;;;;1.15;0.88;;;;;;;14.20;100.00;99343.03;5149511;27;20019;-63
2023/09/23 02:40:17;;;;;;;2.35;1.50;;;;;;;14.22;100.00;99343.81;5149697;27;20055;-64
2023/09/23 02:42:45;;;;;;;1.70;1.30;;;;;;;14.21;100.00;99342.13;5149494;27;20030;-64
2023/09/23 02:45:13;;;;;;;2.08;1.23;;;;;;;14.25;100.00;99337.63;5149280;27;20440;-63
2023/09/23 02:47:42;;;;;;;1.85;1.10;;;;;;;14.19;100.00;99333.50;5149483;27;20050;-64
2023/09/23 02:50:13;;;;;;;1.48;1.25;;;;;;;14.23;100.00;99339.47;5149150;27;20027;-64
2023/09/23 02:52:44;;;;;;;2.15;1.13;;;;;;;14.19;100.00;99345.69;5149241;27;20031;-64
2023/09/23 02:55:14;;;;;;;2.17;1.60;;;;;;;14.18;100.00;99347.47;5149327;27;20054;-64
2023/09/23 02:57:41;;;;;;;3.13;1.20;;;;;;;14.13;100.00;99336.38;5149237;27;20271;-64
2023/09/23 03:00:17;;;;;;;2.05;1.40;;;;;;;14.21;100.00;99351.72;5149264;27;20027;-63
2023/09/23 03:02:51;;;;;;;1.13;1.02;;;;;;;14.16;100.00;99349.28;5149228;27;20099;-64
2023/09/23 03:05:16;;;;;;;3.38;1.63;;;;;;;14.20;100.00;99361.31;5130292;27;20073;-64
2023/09/23 03:07:48;;;;;;;1.65;1.38;;;;;;;14.16;100.00;99351.91;5148970;27;20031;-64
2023/09/23 03:10:18;;;;;;;3.25;1.83;;;;;;;14.21;100.00;99352.56;5149140;27;20033;-64
2023/09/23 03:12:51;;;;;;;2.00;1.40;;;;;;;14.18;100.00;99355.31;5148072;27;20356;-64
2023/09/23 03:15:20;;;;;;;2.33;1.92;;;;;;;14.18;100.00;99354.44;5148983;27;20023;-63
2023/09/23 03:17:50;;;;;;;2.63;1.88;;;;;;;14.19;100.00;99348.31;5148621;27;20018;-64
2023/09/23 03:20:26;;;;;;;2.92;2.10;;;;;;;14.21;100.00;99351.72;5148602;27;20027;-63
2023/09/23 03:22:52;;;;;;;3.70;1.52;;;;;;;14.19;100.00;99346.56;5148668;27;20383;-64
2023/09/23 03:25:18;;;;;;;5.80;1.75;;;;;;;14.23;100.00;99350.72;5148677;27;20043;-64
2023/09/23 03:27:43;;;;;;;1.42;1.33;;;;;;;14.22;100.00;99353.41;5148643;27;20115;-64
2023/09/23 03:30:11;;;;;;;1.50;1.40;;;;;;;14.22;100.00;99350.78;5148469;27;20031;-65
2023/09/23 03:32:37;;;;;;;4.07;1.90;;;;;;;14.24;100.00;99351.59;5130151;27;20015;-64
2023/09/23 03:35:03;;;;;;;1.77;1.38;;;;;;;14.22;100.00;99356.00;5148533;27;20104;-64
2023/09/23 03:37:29;;;;;;;1.48;1.38;;;;;;;14.26;100.00;99355.00;5148223;27;20019;-65
2023/09/23 03:39:55;;;;;;;2.83;2.20;;;;;;;14.25;100.00;99359.34;5148495;27;20255;-65
2023/09/23 03:42:22;;;;;;;4.45;1.77;;;;;;;14.25;100.00;99355.88;5148421;27;20521;-64
2023/09/23 03:44:47;;;;;;;3.13;1.90;;;;;;;14.29;100.00;99354.00;5148353;27;20034;-64
2023/09/23 03:47:12;;;;;;;2.08;1.63;;;;;;;14.28;100.00;99353.16;5148255;27;20016;-65
2023/09/23 03:49:38;;;;;;;1.80;1.60;;;;;;;14.27;100.00;99348.84;5148227;27;20158;-65
2023/09/23 03:52:05;;;;;;;2.60;1.83;;;;;;;14.34;100.00;99358.16;5148113;27;20451;-64
2023/09/23 03:54:33;;;;;;;1.88;1.63;;;;;;;14.38;100.00;99362.31;5148297;27;20019;-64
2023/09/23 03:56:58;;;;;;;7.50;2.30;;;;;;;14.37;100.00;99360.63;5147933;27;20479;-66
2023/09/23 03:59:24;;;;;;;3.13;1.90;;;;;;;14.31;100.00;99354.81;5147978;27;20079;-65
2023/09/23 04:01:50;;;;;;;1.77;1.67;;;;;;;14.31;100.00;99363.50;5147857;27;20048;-65
2023/09/23 04:04:17;;;;;;;4.03;1.58;;;;;;;14.29;100.00;99360.09;5147784;27;20027;-64
2023/09/23 04:06:43;;;;;;;2.55;1.85;;;;;;;14.24;100.00;99360.28;5147840;27;20023;-64
2023/09/23 04:09:11;;;;;;;2.78;1.63;;;;;;;14.17;100.00;99353.59;5147846;27;20025;-64
2023/09/23 04:11:37;;;;;;;1.73;1.50;;;;;;;14.16;100.00;99359.72;5147857;27;20046;-64
2023/09/23 04:14:02;;;;;;;3.03;2.05;;;;;;;14.12;100.00;99360.78;5147652;27;20039;-64
2023/09/23 04:16:28;;;;;;;2.70;1.83;;;;;;;14.06;100.00;99364.47;5147749;27;20059;-64
2023/09/23 04:18:53;;;;;;;6.68;1.83;;;;;;;13.97;100.00;99364.84;5147275;27;20026;-65
2023/09/23 04:21:20;;;;;;;4.07;1.73;;;;;;;13.90;100.00;99358.19;5147682;27;20035;-64
2023/09/23 04:23:46;;;;;;;1.35;1.25;;;;;;;13.83;100.00;99363.63;5147330;27;20039;-64
2023/09/23 04:26:12;;;;;;;2.63;1.50;;;;;;;13.80;100.00;99371.53;5147359;27;20090;-65
2023/09/23 04:28:38;;;;;;;3.70;2.03;;;;;;;13.75;100.00;99378.72;5147583;27;20041;-64
2023/09/23 04:31:03;;;;;;;2.00;1.52;;;;;;;13.70;100.00;99383.25;5147480;27;20128;-64
2023/09/23 04:33:29;;;;;;;4.38;1.83;;;;;;;13.64;100.00;99381.75;5128749;27;20019;-64
2023/09/23 04:35:58;;;;;;;2.88;1.88;;;;;;;13.58;100.00;99380.19;5147167;27;20011;-64
2023/09/23 04:38:24;;;;;;;1.48;1.30;;;;;;;13.55;100.00;99382.91;5147223;27;20037;-65
2023/09/23 04:40:51;;;;;;;1.70;1.15;;;;;;;13.51;100.00;99382.19;5147184;27;20027;-64
2023/09/23 04:43:16;;;;;;;3.38;1.95;;;;;;;13.49;100.00;99386.59;5128806;27;20023;-64
2023/09/23 04:45:42;;;;;;;2.83;1.70;;;;;;;13.44;100.00;99390.25;5147124;27;20034;-65
2023/09/23 04:48:08;;;;;;;8.30;1.52;;;;;;;13.41;100.00;99395.59;5147072;27;20047;-64
2023/09/23 04:50:34;;;;;;;2.20;1.55;;;;;;;13.33;100.00;99391.50;5128546;27;20019;-65
2023/09/23 04:52:59;;;;;;;2.55;1.70;;;;;;;13.25;100.00;99385.72;5147138;27;20054;-64
2023/09/23 04:55:26;;;;;;;2.67;1.70;;;;;;;13.26;100.00;99390.00;5146853;27;20019;-63
2023/09/23 04:57:51;;;;;;;3.13;1.73;;;;;;;13.23;100.00;99395.34;5146623;27;20027;-64
2023/09/23 05:00:18;;;;;;;1.45;1.15;;;;;;;13.20;100.00;99401.53;5146947;27;20019;-65
2023/09/23 05:02:44;;;;;;;1.60;1.00;;;;;;;13.16;100.00;99402.56;5146887;27;20034;-65
2023/09/23 05:05:09;;;;;;;1.80;1.58;;;;;;;13.12;100.00;99407.00;5146596;27;20027;-64
2023/09/23 05:07:37;;;;;;;2.95;1.65;;;;;;;13.13;100.00;99407.88;5146782;27;20032;-65
2023/09/23 05:10:03;;;;;;;2.67;1.35;;;;;;;13.10;100.00;99410.59;5146769;27;20040;-64
2023/09/23 05:12:29;;;;;;;1.38;1.27;;;;;;;13.11;100.00;99413.13;5146423;27;20023;-64
2023/09/23 05:14:55;;;;;;;3.72;1.55;;;;;;;13.08;100.00;99410.59;5146460;27;20024;-64
2023/09/23 05:17:21;;;;;;;2.20;1.55;;;;;;;13.11;100.00;99410.53;5128080;27;20490;-64
2023/09/23 05:19:47;;;;;;;2.08;1.45;;;;;;;13.13;100.00;99413.91;5146103;27;20066;-64
2023/09/23 05:22:12;;;;;;;1.67;1.48;;;;;;;13.14;100.00;99418.25;5127740;27;20019;-64
2023/09/23 05:24:39;;;;;;;1.85;1.33;;;;;;;13.12;100.00;99419.19;5146451;27;20676;-64
2023/09/23 05:27:04;;;;;;;2.08;1.15;;;;;;;13.14;100.00;99428.66;5146343;27;20027;-65
2023/09/23 05:29:30;;;;;;;4.70;1.83;;;;;;;13.18;100.00;99432.00;5127929;27;20057;-65
2023/09/23 05:31:56;;;;;;;2.38;1.23;;;;;;;13.20;100.00;99431.94;5146477;27;20023;-65
2023/09/23 05:34:21;;;;;;;0.75;0.75;;;;;;;13.21;100.00;99428.44;5146101;27;20020;-64
2023/09/23 05:36:47;;;;;;;2.42;1.60;;;;;;;13.25;100.00;99430.03;5145729;27;20027;-64
2023/09/23 05:39:22;;;;;;;1.55;1.30;;;;;;;13.29;100.00;99429.00;5146226;27;20050;-64
2023/09/23 05:41:48;;;;;;;2.40;1.40;;;;;;;13.32;100.00;99423.69;5146237;27;20023;-65
2023/09/23 05:44:16;;;;;;;1.90;1.42;;;;;;;13.35;100.00;99428.81;5146486;27;20111;-63
2023/09/23 05:46:42;;;;;;;1.63;1.25;;;;;;;13.43;100.00;99420.72;5146029;27;20451;-64
2023/09/23 05:49:12;;;;;;;1.70;1.50;;;;;;;13.55;100.00;99423.78;5127660;28;20019;-65
2023/09/23 05:51:37;;;;;;;1.20;1.10;;;;;;;13.72;100.00;99423.19;5146285;28;20056;-65
2023/09/23 05:54:03;;;;;;;1.55;1.08;;;;;;;13.72;100.00;99431.00;5146312;28;20023;-65
2023/09/23 05:56:28;;;;;;;1.92;1.38;;;;;;;13.71;100.00;99429.28;5145948;28;20084;-65
2023/09/23 05:58:54;;;;;;;0.77;0.68;;;;;;;13.67;100.00;99433.78;5146000;28;20023;-64
2023/09/23 06:01:19;;;;;;;1.58;1.00;;;;;;;13.62;100.00;99433.97;5145754;28;20027;-64
2023/09/23 06:03:45;;;;;;;1.20;1.05;;;;;;;13.60;100.00;99446.19;5145775;28;20035;-63
2023/09/23 06:06:11;;;;;;;0.88;0.70;;;;;;;13.61;100.00;99447.88;5127467;28;20022;-64
2023/09/23 06:08:37;;;;;;;2.45;1.17;;;;;;;13.57;100.00;99435.88;5146070;28;20512;-64
2023/09/23 06:11:04;;;;;;;1.13;1.00;;;;;;;13.61;100.00;99453.09;5127575;28;20075;-64
2023/09/23 06:13:32;;;;;;;5.15;1.08;;;;;;;13.61;100.00;99450.50;5145895;28;20047;-64
2023/09/23 06:16:05;;;;;;;0.40;0.40;;;;;;;13.68;100.00;99453.72;5145765;28;20475;-64
2023/09/23 06:18:32;;;;;;;1.77;0.90;;;;;;;13.70;100.00;99459.75;5127036;28;20387;-63
2023/09/23 06:21:01;;;;;;;1.00;0.90;;;;;;;13.69;100.00;99447.59;5146013;28;20031;-64
2023/09/23 06:23:27;;;;;;;1.30;1.17;;;;;;;13.58;100.00;99444.53;5145599;28;20027;-63
2023/09/23 06:25:54;;;;;;;1.60;0.88;;;;;;;13.66;100.00;99460.75;5145625;28;20026;-63
2023/09/23 06:28:20;;;;;;;1.88;1.35;;;;;;;13.61;100.00;99453.09;5145774;28;20019;-63
2023/09/23 06:30:46;;;;;;;2.80;1.10;;;;;;;13.62;100.00;99470.47;5127282;28;20027;-64
2023/09/23 06:33:11;;;;;;;4.10;1.17;;;;;;;13.45;100.00;99446.72;5145871;28;20019;-63
2023/09/23 06:35:36;;;;;;;2.22;1.38;;;;;;;13.54;100.00;99467.28;5145371;28;20023;-63
2023/09/23 06:38:02;;;;;;;0.93;0.80;;;;;;;13.47;100.00;99474.44;5145646;28;20023;-63
2023/09/23 06:40:27;;;;;;;0.90;0.60;;;;;;;13.48;100.00;99477.91;5127063;28;20448;-64
2023/09/23 06:42:52;;;;;;;1.20;1.10;;;;;;;13.50;100.00;99470.84;5145621;28;20023;-64
2023/09/23 06:45:18;;;;;;;1.98;0.90;;;;;;;13.51;100.00;99470.00;5145667;28;20026;-64
2023/09/23 06:47:44;;;;;;;2.15;1.08;;;;;;;13.49;100.00;99472.63;5145563;27;20075;-64
2023/09/23 06:50:10;;;;;;;4.10;1.35;;;;;;;13.50;100.00;99484.78;5149181;27;20042;-64
2023/09/23 06:52:36;;;;;;;1.70;1.17;;;;;;;13.56;100.00;99475.88;5149386;27;20031;-64
2023/09/23 06:55:01;;;;;;;1.88;1.30;;;;;;;13.62;100.00;99480.91;5130772;27;20058;-64
2023/09/23 06:57:26;;;;;;;1.52;1.17;;;;;;;13.67;100.00;99482.47;5148963;27;20024;-64
2023/09/23 06:59:52;;;;;;;1.30;1.10;;;;;;;13.74;100.00;99489.16;5149017;27;20376;-65
2023/09/23 07:02:17;;;;;;;1.48;0.95;;;;;;;13.69;100.00;99485.91;5149150;27;20034;-65
2023/09/23 07:04:42;;;;;;;4.50;1.38;;;;;;;13.73;100.00;99492.69;5148691;27;20448;-64
2023/09/23 07:07:08;;;;;;;1.50;1.10;;;;;;;13.71;100.00;99500.56;5148924;27;20046;-63
2023/09/23 07:09:33;;;;;;;2.50;1.30;;;;;;;13.63;100.00;99506.06;5148697;27;20053;-65
2023/09/23 07:11:58;;;;;;;1.10;1.00;;;;;;;13.58;100.00;99505.38;5148722;27;20080;-64
2023/09/23 07:14:24;;;;;;;1.50;1.17;;;;;;;13.58;100.00;99512.34;5148670;27;20023;-64
2023/09/23 07:16:49;;;;;;;3.42;1.50;;;;;;;13.57;100.00;99514.09;5148793;27;20031;-65
2023/09/23 07:19:14;;;;;;;2.17;1.63;;;;;;;13.55;100.00;99499.41;5148572;27;20024;-63
2023/09/23 07:21:40;;;;;;;1.13;1.02;;;;;;;13.68;100.00;99510.25;5148653;27;20034;-64
2023/09/23 07:24:05;;;;;;;1.58;1.02;;;;;;;13.71;100.00;99500.56;5146153;27;20043;-64
2023/09/23 07:26:31;;;;;;;5.05;1.50;;;;;;;13.79;100.00;99505.50;5148601;27;20039;-64
2023/09/23 07:28:56;;;;;;;1.70;1.58;;;;;;;13.78;100.00;99516.00;5148767;27;20023;-64
2023/09/23 07:31:22;;;;;;;1.13;1.02;;;;;;;13.82;100.00;99518.44;5130028;27;20034;-64
2023/09/23 07:33:48;;;;;;;0.98;0.90;;;;;;;13.78;100.00;99527.28;5129993;27;20019;-63
2023/09/23 07:36:14;;;;;;;2.80;1.50;;;;;;;13.59;100.00;99525.34;5129805;27;20479;-64
2023/09/23 07:38:40;;;;;;;1.75;1.20;;;;;;;13.53;100.00;99525.53;5148540;27;20102;-64
2023/09/23 07:41:06;;;;;;;1.63;1.15;;;;;;;13.60;100.00;99524.44;5148283;27;20288;-64
2023/09/23 07:43:33;;;;;;;2.53;1.45;;;;;;;13.71;100.00;99515.34;5148199;27;20043;-64
2023/09/23 07:45:59;;;;;;;1.23;0.98;;;;;;;13.79;100.00;99513.34;5148152;27;20023;-64
2023/09/23 07:48:24;;;;;;;1.83;1.35;;;;;;;13.80;100.00;99504.59;5147954;27;20023;-64
2023/09/23 07:50:49;;;;;;;1.73;1.20;;;;;;;13.93;100.00;99498.94;5148120;27;20025;-64
2023/09/23 07:53:15;;;;;;;4.35;1.50;;;;;;;14.06;100.00;99499.31;5148190;27;20511;-64
2023/09/23 07:55:41;;;;;;;1.33;1.13;;;;;;;14.16;100.00;99505.91;5147938;27;20437;-65
2023/09/23 07:58:06;;;;;;;1.20;1.08;;;;;;;14.27;100.00;99500.25;5147971;27;20023;-65
2023/09/23 08:00:32;;;;;;;1.60;1.40;;;;;;;14.22;100.00;99503.06;5129196;27;20030;-64
2023/09/23 08:02:57;;;;;;;1.55;1.20;;;;;;;14.15;100.00;99514.66;5129352;27;20047;-65
2023/09/23 08:05:23;;;;;;;2.90;2.03;;;;;;;14.11;100.00;99521.75;5147745;27;20499;-68
2023/09/23 08:07:51;;;;;;;2.63;1.75;;;;;;;14.04;100.00;99511.59;5147767;27;20019;-66
2023/09/23 08:10:17;;;;;;;2.60;1.33;;;;;;;14.04;100.00;99516.81;5147702;27;20019;-69
2023/09/23 08:12:42;;;;;;;1.23;1.13;;;;;;;14.00;100.00;99511.69;5147771;27;20028;-67
2023/09/23 08:15:08;;;;;;;1.77;1.35;;;;;;;14.02;100.00;99516.88;5147607;27;20083;-65
2023/09/23 08:17:34;;;;;;;1.63;1.52;;;;;;;14.03;100.00;99523.78;5147391;27;20471;-65
2023/09/23 08:20:03;;;;;;;1.90;1.45;;;;;;;14.05;100.00;99526.31;5147488;27;20027;-65
2023/09/23 08:22:28;;;;;;;2.97;1.73;;;;;;;13.94;100.00;99508.47;5147597;27;20054;-65
2023/09/23 08:24:53;;;;;;;2.53;1.40;;;;;;;14.06;100.00;99526.28;5147329;27;20062;-65
2023/09/23 08:27:19;;;;;;;3.05;1.75;;;;;;;14.11;100.00;99542.63;5147359;27;20070;-65
2023/09/23 08:29:44;;;;;;;2.53;1.77;;;;;;;14.13;100.00;99532.13;5147477;27;20117;-65
2023/09/23 08:32:10;;;;;;;1.52;1.42;;;;;;;14.13;100.00;99532.13;5147249;27;20486;-63
2023/09/23 08:34:35;;;;;;;2.88;1.80;;;;;;;14.15;100.00;99534.66;5147163;27;20027;-64
2023/09/23 08:37:00;;;;;;;3.83;1.90;;;;;;;14.17;100.00;99543.31;5147241;27;20019;-63
2023/09/23 08:39:26;;;;;;;1.90;1.50;;;;;;;14.18;100.00;99539.78;5147244;27;20031;-64
2023/09/23 08:41:54;;;;;;;1.48;1.30;;;;;;;14.23;100.00;99543.06;5147017;27;20047;-64
2023/09/23 08:44:22;;;;;;;2.03;1.30;;;;;;;14.22;100.00;99549.19;5146996;27;20037;-64
2023/09/23 08:46:50;;;;;;;1.30;1.20;;;;;;;14.19;100.00;99542.31;5128659;27;20026;-64
2023/09/23 08:49:16;;;;;;;1.80;1.38;;;;;;;14.13;100.00;99534.72;5146733;27;20034;-63
2023/09/23 08:51:44;;;;;;;1.17;1.08;;;;;;;14.16;100.00;99542.44;5128321;27;20023;-63
2023/09/23 08:54:11;;;;;;;1.63;1.17;;;;;;;14.23;100.00;99543.91;5128222;27;20027;-64
2023/09/23 08:56:36;;;;;;;1.10;1.00;;;;;;;14.24;100.00;99539.53;5146725;27;20047;-63
2023/09/23 08:59:03;;;;;;;1.77;1.50;;;;;;;14.30;100.00;99543.66;5146761;27;20027;-64
2023/09/23 09:01:28;;;;;;;1.30;1.20;;;;;;;14.38;100.00;99545.09;5146735;27;20019;-64
2023/09/23 09:03:54;;;;;;;2.05;1.85;;;;;;;14.45;100.00;99537.88;5146682;27;20030;-63
2023/09/23 09:06:21;;;;;;;1.27;1.15;;;;;;;14.56;100.00;99549.66;5128354;27;20102;-63
2023/09/23 09:08:47;;;;;;;3.40;1.55;;;;;;;14.65;100.00;99551.09;5128697;27;20060;-63
2023/09/23 09:11:20;;;;;;;1.40;1.30;;;;;;;14.69;100.00;99543.06;5145786;27;20035;-63
2023/09/23 09:13:46;;;;;;;1.33;1.23;;;;;;;14.71;100.00;99541.22;5146447;27;20076;-63
2023/09/23 09:16:11;;;;;;;0.73;0.73;;;;;;;14.74;100.00;99524.59;5146446;27;20019;-64
2023/09/23 09:18:37;;;;;;;1.92;1.33;;;;;;;14.93;100.00;99543.03;5127532;27;20028;-63
2023/09/23 09:21:08;;;;;;;1.23;1.08;;;;;;;15.11;100.00;99551.84;5146374;27;20030;-63
2023/09/23 09:23:33;;;;;;;2.58;1.85;;;;;;;15.42;100.00;99554.97;5146624;27;20082;-63
2023/09/23 09:25:59;;;;;;;1.58;1.33;;;;;;;16.37;100.00;99546.50;5146232;27;20042;-67
2023/09/23 09:28:24;;;;;;;2.83;1.83;;;;;;;17.79;100.00;99545.72;5146130;27;20023;-62
2023/09/23 09:30:55;;;;;;;2.53;1.30;;;;;;;18.24;100.00;99537.28;5146248;27;20098;-63
2023/09/23 09:33:24;;;;;;;1.98;1.33;;;;;;;18.27;100.00;99536.25;5146052;27;20026;-63
2023/09/23 09:35:54;;;;;;;1.33;1.23;;;;;;;18.13;100.00;99544.91;5145663;27;20031;-63
2023/09/23 09:38:22;;;;;;;1.48;1.35;;;;;;;18.00;100.00;99560.41;5146153;27;20019;-63
2023/09/23 09:40:49;;;;;;;1.40;1.02;;;;;;;17.77;100.00;99542.34;5146094;27;20036;-64
2023/09/23 09:43:16;;;;;;;1.23;1.05;;;;;;;17.31;98.92;99550.78;5146333;27;20543;-68
2023/09/23 09:45:43;;;;;;;1.77;1.27;;;;;;;17.01;99.47;99557.47;5145889;27;20086;-66
2023/09/23 09:48:12;;;;;;;0.55;0.55;;;;;;;16.77;100.00;99557.75;5145882;27;20037;-68
2023/09/23 09:50:39;;;;;;;5.10;1.70;;;;;;;17.07;100.00;99557.16;5146071;28;20023;-67
2023/09/23 09:53:06;;;;;;;0.75;0.60;;;;;;;18.28;100.00;99559.81;5146222;28;20030;-67
2023/09/23 09:55:32;;;;;;;0.57;0.55;;;;;;;19.38;98.22;99569.53;5146153;28;20026;-65
2023/09/23 09:58:01;;;;;;;2.22;1.00;;;;;;;20.68;96.31;99560.78;5146003;28;20051;-65
2023/09/23 10:00:27;;;;;;;2.88;1.00;;;;;;;21.81;92.48;99573.69;5146155;28;20023;-65
2023/09/23 10:03:00;;;;;;;0.65;0.65;;;;;;;21.84;89.80;99578.78;5146149;28;20459;-64
2023/09/23 10:05:40;;;;;;;0.85;0.70;;;;;;;21.17;86.99;99570.84;5145948;28;20059;-64
2023/09/23 10:08:15;;;;;;;3.30;1.17;;;;;;;20.43;88.82;99569.41;5146150;28;20019;-63
2023/09/23 10:10:48;;;;;;;1.67;0.80;;;;;;;19.92;90.79;99589.19;5127446;28;20039;-64
2023/09/23 10:13:22;;;;;;;1.50;0.40;;;;;;;19.35;91.59;99585.50;5145931;28;20023;-64
2023/09/23 10:15:47;;;;;;;0.70;0.60;;;;;;;18.83;90.68;99576.06;5145907;28;20034;-64
2023/09/23 10:18:16;;;;;;;1.05;0.60;;;;;;;18.50;91.64;99577.03;5145878;28;20015;-64
2023/09/23 10:20:54;;;;;;;0.63;0.60;;;;;;;18.26;87.40;99577.44;5145865;28;20019;-67
2023/09/23 10:23:20;;;;;;;0.73;0.60;;;;;;;18.19;92.28;99584.81;5148928;27;20019;-67
2023/09/23 10:25:50;;;;;;;2.55;0.68;;;;;;;17.93;91.01;99589.63;5150160;27;20054;-68
2023/09/23 10:28:20;;;;;;;1.77;0.77;;;;;;;17.72;92.18;99596.84;5150049;27;20027;-67
2023/09/23 10:31:05;;;;;;;2.10;0.90;;;;;;;17.33;90.33;99611.91;5149950;27;20019;-67
2023/09/23 10:33:35;;;;;;;2.53;0.95;;;;;;;16.76;90.10;99618.94;5149677;27;20088;-68
2023/09/23 10:36:05;;;;;;;0.80;0.63;;;;;;;16.19;90.44;99606.66;5149731;27;20049;-68
2023/09/23 10:38:35;;;;;;;1.08;0.63;;;;;;;15.85;92.65;99607.22;5149440;27;20110;-70
2023/09/23 10:41:01;;;;;;;1.80;0.70;;;;;;;15.58;94.90;99604.00;5149599;27;20471;-71
2023/09/23 10:43:27;;;;;;;1.10;0.80;;;;;;;15.42;96.28;99603.78;5130931;27;20043;-71
2023/09/23 10:45:54;;;;;;;0.20;0.20;;;;;;;15.39;97.85;99604.78;5149412;27;20020;-69
2023/09/23 10:48:19;;;;;;;0.20;0.20;;;;;;;15.28;98.24;99606.97;5149593;27;20019;-70
2023/09/23 10:50:45;;;;;;;0.20;0.20;;;;;;;15.31;99.65;99619.94;5130799;27;20037;-70
2023/09/23 10:53:12;;;;;;;0.20;0.20;;;;;;;15.59;100.00;99622.25;5149365;27;20129;-71
2023/09/23 10:55:39;;;;;;;0.20;0.20;;;;;;;15.85;100.00;99622.91;5130963;27;20027;-72
2023/09/23 10:58:08;;;;;;;0.30;0.30;;;;;;;16.15;99.70;99626.91;5149311;27;20435;-72
2023/09/23 11:00:36;;;;;;;0.20;0.20;;;;;;;16.24;97.84;99628.28;5149102;27;20076;-71
2023/09/23 11:03:06;;;;;;;0.20;0.20;;;;;;;16.54;98.69;99627.78;5149408;27;20102;-71
2023/09/23 11:05:35;;;;;;;0.20;0.20;;;;;;;17.30;97.95;99626.00;5130392;27;20019;-70
2023/09/23 11:08:01;;;;;;;0.20;0.20;;;;;;;17.69;95.79;99628.50;5149224;27;20019;-69
2023/09/23 11:10:27;;;;;;;0.20;0.20;;;;;;;17.78;95.26;99635.91;5149153;27;20055;-69
2023/09/23 11:12:56;;;;;;;0.38;0.38;;;;;;;17.89;94.12;99637.97;5130284;27;20023;-70
2023/09/23 11:15:21;;;;;;;0.20;0.20;;;;;;;17.58;94.42;99639.53;5149082;27;20097;-70
2023/09/23 11:17:47;;;;;;;0.20;0.20;;;;;;;17.33;94.79;99630.28;5148807;27;20368;-70
2023/09/23 11:20:13;;;;;;;0.20;0.20;;;;;;;17.07;94.69;99633.22;5148806;27;20023;-69
2023/09/23 11:22:43;;;;;;;0.20;0.20;;;;;;;16.80;96.09;99633.59;5130229;27;20095;-69
2023/09/23 11:25:09;;;;;;;0.20;0.20;;;;;;;16.56;96.97;99632.97;5148793;27;20121;-69